Impacts METAR Board INFO
IDs:

KLGA - New York/La Guardia, NY, US

Updated at: 1812 UTC 18 Feb 2018
Potential Impact None Slight Moderate High
Time18/06Z 18/07Z 18/08Z 18/09Z 18/10Z 18/11Z 18/12Z 18/13Z 18/14Z 18/15Z 18/16Z 18/17Z 18/18Z
VIS1 3 3 10 10 10 10 10 10 10 10 10 10
CIG3 5 6 8 23 -- -- -- -- -- -- -- --
CoverOVCOVCOVCOVCBKNSCTFEWFEWFEWFEWFEWFEWFEW
FltCatLIFRIFRIFRIFRMVFRVFRVFRVFRVFRVFRVFRVFRVFR
WXBRBRBR--------------------
WDir700300280270290310320340310340300310
WSpd4 0 7 8 9 15 13 17 16 12 7 11 11
WGst-- -- -- -- -- -- -- 28 23 18 17 -- --
Raw hourly METARs
KLGA 180551Z 07004KT 1SM R04/P6000FT BR OVC003 01/00 A2996 RMK AO2 SFC VIS 2 SNE42 SLP145 931037 4/004 P0002 60054 T00060000 10006 20006 58036 $
KLGA 180701Z 00000KT 3SM BR BKN005 OVC009 01/01 A2996 RMK AO2 SFC VIS 4 T00110006 $
KLGA 180751Z 30007KT 3SM BR BKN006 OVC009 01/00 A2996 RMK AO2 SFC VIS 4 SLP145 T00110000 $
KLGA 180851Z COR 28008KT 10SM OVC008 02/00 A2999 RMK AO2 SLP155 T00170000 53010 $
KLGA 180951Z 27009KT 10SM FEW014 BKN023 02/M01 A3003 RMK AO2 SLP168 T00221006 $
KLGA 181051Z 29015KT 10SM FEW014 SCT025 02/M01 A3006 RMK AO2 SLP178 T00221011 $
KLGA 181151Z 31013KT 10SM FEW016 FEW025 02/M02 A3012 RMK AO2 SLP198 4/003 70062 T00221017 10022 20006 53043 $
KLGA 181251Z 32017G28KT 10SM FEW022 FEW030 03/M03 A3016 RMK AO2 PK WND 31029/1221 SLP213 T00281033 $
KLGA 181351Z 34016G23KT 10SM FEW033 03/M05 A3021 RMK AO2 PK WND 32030/1309 SLP228 T00331050 $
KLGA 181451Z 31012G18KT 10SM FEW033 04/M04 A3026 RMK AO2 SLP246 T00391044 53047 $
KLGA 181551Z 34007G17KT 10SM FEW035 05/M06 A3030 RMK AO2 PRESRR SLP259 T00501061 $
KLGA 181651Z 30011KT 10SM FEW035 06/M06 A3032 RMK AO2 SLP266 T00611056 $
KLGA 181751Z 31011KT 10SM FEW035 07/M05 A3034 RMK AO2 SLP272 4/002 933004 T00671050 10067 20022 51026 $